createdAt,value
2023-04-19T00:02:19.390Z,73.34
2023-04-19T00:04:47.771Z,72.89
2023-04-19T00:07:16.969Z,73.02
2023-04-19T00:09:44.691Z,73.21
2023-04-19T00:12:12.287Z,72.99
2023-04-19T00:14:39.890Z,73.00
2023-04-19T00:17:07.550Z,72.89
2023-04-19T00:19:35.188Z,72.85
2023-04-19T00:22:02.798Z,72.79
2023-04-19T00:24:30.838Z,73.05
2023-04-19T00:26:59.333Z,72.48
2023-04-19T00:29:27.012Z,72.48
2023-04-19T00:31:54.634Z,72.64
2023-04-19T00:34:22.221Z,72.50
2023-04-19T00:36:49.790Z,72.71
2023-04-19T00:39:17.418Z,72.45
2023-04-19T00:41:45.045Z,72.61
2023-04-19T00:44:12.773Z,72.60
2023-04-19T00:46:40.632Z,72.55
2023-04-19T00:49:08.390Z,72.11
2023-04-19T00:51:36.270Z,72.35
2023-04-19T00:54:04.353Z,72.03
2023-04-19T00:56:31.953Z,71.98
2023-04-19T00:58:59.748Z,72.50
2023-04-19T01:01:27.735Z,72.37
2023-04-19T01:03:55.684Z,72.35
2023-04-19T01:06:23.486Z,72.31
2023-04-19T01:08:51.103Z,72.10
2023-04-19T01:11:18.717Z,71.96
2023-04-19T01:13:46.345Z,71.87
2023-04-19T01:16:14.010Z,71.84
2023-04-19T01:18:41.699Z,72.18
2023-04-19T01:21:09.369Z,72.46
2023-04-19T01:23:38.926Z,72.03
2023-04-19T01:26:06.579Z,71.82
2023-04-19T01:28:34.190Z,72.09
2023-04-19T01:31:01.832Z,71.93
2023-04-19T01:33:29.478Z,71.85
2023-04-19T01:35:57.099Z,72.40
2023-04-19T01:38:24.736Z,72.13
2023-04-19T01:40:52.403Z,72.17
2023-04-19T01:43:20.056Z,71.72
2023-04-19T01:45:47.711Z,72.03
2023-04-19T01:48:15.383Z,72.29
2023-04-19T01:50:43.013Z,72.22
2023-04-19T01:53:10.714Z,72.09
2023-04-19T01:55:39.465Z,72.29
2023-04-19T01:58:07.336Z,72.08
2023-04-19T02:00:34.948Z,72.37
2023-04-19T02:03:02.735Z,72.79
2023-04-19T02:05:30.544Z,72.51
2023-04-19T02:07:58.177Z,72.61
2023-04-19T02:10:25.910Z,72.98
2023-04-19T02:12:53.666Z,73.01
2023-04-19T02:15:21.410Z,72.85
2023-04-19T02:17:49.568Z,73.19
2023-04-19T02:20:17.292Z,73.64
2023-04-19T02:22:45.197Z,74.12
2023-04-19T02:25:12.857Z,73.87
2023-04-19T02:27:40.450Z,73.87
2023-04-19T02:30:08.852Z,74.35
2023-04-19T02:32:36.549Z,73.90
2023-04-19T02:35:04.714Z,73.78
2023-04-19T02:37:32.375Z,74.31
2023-04-19T02:40:00.039Z,74.21
2023-04-19T02:42:27.653Z,74.40
2023-04-19T02:44:55.444Z,74.71
2023-04-19T02:47:23.153Z,74.00
2023-04-19T02:49:51.042Z,74.48
2023-04-19T02:52:18.638Z,74.54
2023-04-19T02:54:46.384Z,74.33
2023-04-19T02:57:14.019Z,74.16
2023-04-19T02:59:41.767Z,74.21
2023-04-19T03:02:09.424Z,74.81
2023-04-19T03:04:37.648Z,74.91
2023-04-19T03:07:06.272Z,74.78
2023-04-19T03:09:33.902Z,74.68
2023-04-19T03:12:01.651Z,74.90
2023-04-19T03:14:29.338Z,74.62
2023-04-19T03:16:56.898Z,75.27
2023-04-19T03:19:24.618Z,75.28
2023-04-19T03:21:52.208Z,75.10
2023-04-19T03:24:20.415Z,75.42
2023-04-19T03:26:48.005Z,75.02
2023-04-19T03:29:15.733Z,75.25
2023-04-19T03:31:43.409Z,75.53
2023-04-19T03:34:11.103Z,75.76
2023-04-19T03:36:39.671Z,75.88
2023-04-19T03:39:07.283Z,75.91
2023-04-19T03:41:34.896Z,76.03
2023-04-19T03:44:02.508Z,75.91
2023-04-19T03:46:33.500Z,76.04
2023-04-19T03:49:01.302Z,75.72
2023-04-19T03:51:29.056Z,75.73
2023-04-19T03:53:56.646Z,75.53
2023-04-19T03:56:24.462Z,75.68
2023-04-19T03:58:52.085Z,75.37
2023-04-19T04:01:22.767Z,75.44
2023-04-19T04:03:50.718Z,75.21
2023-04-19T04:06:18.989Z,75.42
2023-04-19T04:08:46.948Z,75.59
2023-04-19T04:11:14.620Z,75.58
2023-04-19T04:13:43.339Z,76.00
2023-04-19T04:16:11.096Z,76.29
2023-04-19T04:18:38.856Z,76.09
2023-04-19T04:21:06.583Z,76.31
2023-04-19T04:23:34.225Z,76.18
2023-04-19T04:26:02.464Z,75.89
2023-04-19T04:28:30.128Z,76.06
2023-04-19T04:30:58.142Z,76.19
2023-04-19T04:33:26.859Z,76.27
2023-04-19T04:35:54.691Z,76.57
2023-04-19T04:38:25.065Z,76.53
2023-04-19T04:40:53.762Z,76.52
2023-04-19T04:43:22.826Z,76.81
2023-04-19T04:45:50.547Z,76.73
2023-04-19T04:48:18.516Z,76.90
2023-04-19T04:50:46.180Z,76.70
2023-04-19T04:53:13.791Z,76.70
2023-04-19T04:55:41.432Z,76.82
2023-04-19T04:58:09.073Z,76.55
2023-04-19T05:00:36.893Z,76.57
2023-04-19T05:03:04.732Z,76.92
2023-04-19T05:05:32.486Z,76.67
2023-04-19T05:08:00.161Z,76.76
2023-04-19T05:10:27.954Z,76.45
2023-04-19T05:12:55.664Z,76.36
2023-04-19T05:15:23.312Z,75.97
2023-04-19T05:17:50.961Z,75.83
2023-04-19T05:20:18.745Z,75.83
2023-04-19T05:22:46.390Z,75.48
2023-04-19T05:25:13.991Z,74.78
2023-04-19T05:27:41.646Z,74.81
2023-04-19T05:30:09.596Z,74.77
2023-04-19T05:32:37.455Z,74.45
2023-04-19T05:35:06.121Z,74.65
2023-04-19T05:37:33.772Z,73.92
2023-04-19T05:40:01.643Z,73.54
2023-04-19T05:42:29.398Z,73.55
2023-04-19T05:44:57.167Z,73.54
2023-04-19T05:47:24.966Z,73.68
2023-04-19T05:49:52.707Z,73.72
2023-04-19T05:52:20.668Z,74.15
2023-04-19T05:54:48.439Z,73.85
2023-04-19T05:57:16.341Z,73.79
2023-04-19T05:59:44.174Z,73.94
2023-04-19T06:02:11.885Z,74.09
2023-04-19T06:04:39.784Z,74.24
2023-04-19T06:07:13.585Z,74.47
2023-04-19T06:09:50.097Z,74.60
2023-04-19T06:12:17.735Z,74.54
2023-04-19T06:14:45.559Z,74.54
2023-04-19T06:17:14.269Z,74.54
2023-04-19T06:19:42.446Z,75.00
2023-04-19T06:22:10.108Z,75.44
2023-04-19T06:24:37.724Z,75.38
2023-04-19T06:27:05.379Z,75.21
2023-04-19T06:29:35.277Z,75.09
2023-04-19T06:32:02.976Z,75.35
2023-04-19T06:34:30.878Z,75.47
2023-04-19T06:36:58.522Z,75.59
2023-04-19T06:39:27.302Z,75.34
2023-04-19T06:41:54.918Z,74.84
2023-04-19T06:44:22.516Z,75.00
2023-04-19T06:46:50.164Z,74.49
2023-04-19T06:49:17.893Z,74.21
2023-04-19T06:51:45.904Z,73.75
2023-04-19T06:54:13.522Z,73.86
2023-04-19T06:56:45.941Z,73.63
2023-04-19T06:59:14.355Z,73.46
2023-04-19T07:01:42.527Z,73.00
2023-04-19T07:04:10.790Z,73.16
2023-04-19T07:06:38.800Z,73.07
2023-04-19T07:09:07.103Z,73.37
2023-04-19T07:11:34.800Z,72.93
2023-04-19T07:14:02.501Z,72.70
2023-04-19T07:16:30.250Z,72.64
2023-04-19T07:18:57.956Z,72.60
2023-04-19T07:21:28.754Z,72.44
2023-04-19T07:23:56.361Z,71.88
2023-04-19T07:26:24.199Z,71.69
2023-04-19T07:31:34.170Z,71.96
2023-04-19T07:34:01.846Z,71.37
2023-04-19T07:36:29.852Z,71.10
2023-04-19T07:38:57.964Z,71.62
2023-04-19T07:41:25.592Z,71.29
2023-04-19T07:43:53.282Z,71.19
2023-04-19T07:46:20.916Z,70.11
2023-04-19T07:48:48.687Z,70.54
2023-04-19T07:51:16.851Z,70.97
2023-04-19T07:53:44.968Z,71.80
2023-04-19T07:56:13.131Z,72.48
2023-04-19T07:58:41.587Z,73.17
2023-04-19T08:01:09.492Z,73.97
2023-04-19T08:03:37.862Z,74.02
2023-04-19T08:06:07.246Z,74.21
2023-04-19T08:08:36.068Z,74.66
2023-04-19T08:11:04.734Z,75.12
2023-04-19T08:13:32.383Z,75.68
2023-04-19T08:18:31.378Z,76.02
2023-04-19T08:20:59.116Z,76.06
2023-04-19T08:23:32.044Z,76.01
2023-04-19T08:26:09.165Z,76.21
2023-04-19T08:28:36.802Z,76.03
2023-04-19T08:31:07.923Z,76.36
2023-04-19T08:33:35.905Z,76.39
2023-04-19T08:36:03.919Z,76.53
2023-04-19T08:38:31.659Z,76.62
2023-04-19T08:40:59.295Z,76.58
2023-04-19T08:43:28.915Z,76.71
2023-04-19T08:45:56.574Z,76.67
2023-04-19T08:48:24.276Z,76.71
2023-04-19T08:51:01.259Z,76.98
2023-04-19T08:53:31.659Z,76.98
2023-04-19T08:58:45.855Z,77.42
2023-04-19T09:01:34.016Z,77.06
2023-04-19T09:04:20.759Z,76.94
2023-04-19T09:06:54.144Z,76.57
2023-04-19T09:11:53.914Z,76.55
2023-04-19T09:14:22.233Z,76.62
2023-04-19T09:16:52.132Z,76.76
2023-04-19T09:19:24.735Z,76.88
2023-04-19T09:21:54.714Z,76.66
2023-04-19T09:25:14.549Z,76.71
2023-04-19T09:27:31.300Z,76.47
2023-04-19T09:30:00.548Z,76.21
2023-04-19T09:32:28.844Z,76.18
2023-04-19T09:34:57.288Z,76.45
2023-04-19T09:37:39.112Z,76.27
2023-04-19T09:40:25.762Z,76.30
2023-04-19T09:48:07.468Z,75.56
2023-04-19T09:50:46.220Z,75.95
2023-04-19T09:53:22.877Z,75.83
2023-04-19T09:56:00.207Z,75.80
2023-04-19T09:58:41.597Z,75.85
2023-04-19T10:01:16.316Z,75.53
2023-04-19T10:03:46.223Z,75.68
2023-04-19T10:08:50.005Z,75.64
2023-04-19T10:11:18.811Z,75.59
2023-04-19T10:13:46.687Z,74.93
2023-04-19T10:16:19.696Z,74.18
2023-04-19T10:18:52.416Z,74.31
2023-04-19T10:21:20.051Z,74.60
2023-04-19T10:23:47.624Z,74.41
2023-04-19T10:26:15.292Z,74.55
2023-04-19T10:28:42.895Z,74.76
2023-04-19T10:31:13.865Z,74.61
2023-04-19T10:33:41.634Z,74.76
2023-04-19T10:36:10.850Z,74.74
2023-04-19T10:38:47.327Z,74.96
2023-04-19T10:41:19.159Z,74.97
2023-04-19T10:43:48.380Z,75.15
2023-04-19T10:46:22.358Z,75.14
2023-04-19T10:48:56.234Z,75.04
2023-04-19T10:51:28.168Z,74.74
2023-04-19T10:54:00.026Z,75.00
2023-04-19T10:56:34.074Z,75.17
2023-04-19T10:59:08.519Z,75.21
2023-04-19T11:01:46.036Z,75.06
2023-04-19T11:04:19.840Z,74.82
2023-04-19T11:06:50.633Z,75.21
2023-04-19T11:09:28.496Z,75.11
2023-04-19T11:12:08.419Z,75.16
2023-04-19T11:14:52.776Z,74.82
2023-04-19T11:17:28.263Z,74.78
2023-04-19T11:19:59.504Z,74.91
2023-04-19T11:22:38.344Z,74.93
2023-04-19T11:25:11.891Z,74.97
2023-04-19T11:27:41.057Z,74.81
2023-04-19T11:30:11.363Z,74.97
2023-04-19T11:32:45.921Z,75.23
2023-04-19T11:35:13.982Z,75.33
2023-04-19T11:37:41.673Z,75.04
2023-04-19T11:40:09.710Z,75.28
2023-04-19T11:42:37.395Z,75.36
2023-04-19T11:45:09.018Z,75.29
2023-04-19T11:47:50.816Z,75.60
2023-04-19T11:50:38.355Z,75.50
2023-04-19T11:53:23.086Z,75.27
2023-04-19T11:56:16.901Z,75.28
2023-04-19T11:58:45.661Z,75.03
2023-04-19T12:01:14.837Z,74.93
2023-04-19T12:03:53.632Z,74.65
2023-04-19T12:06:25.821Z,74.80
2023-04-19T12:08:54.328Z,74.12
2023-04-19T12:11:26.864Z,74.35
2023-04-19T12:14:14.589Z,74.52
2023-04-19T12:16:45.067Z,74.89
2023-04-19T12:19:14.342Z,75.00
2023-04-19T12:21:42.226Z,74.80
2023-04-19T12:24:09.897Z,74.85
2023-04-19T12:26:38.060Z,74.82
2023-04-19T12:29:05.821Z,74.51
2023-04-19T12:31:33.660Z,74.61
2023-04-19T12:34:01.529Z,74.51
2023-04-19T12:36:30.472Z,74.68
2023-04-19T12:38:58.204Z,74.19
2023-04-19T12:41:25.948Z,73.96
2023-04-19T12:43:53.565Z,74.24
2023-04-19T12:46:21.662Z,74.22
2023-04-19T12:48:49.469Z,74.36
2023-04-19T12:51:17.301Z,74.60
2023-04-19T12:53:49.475Z,74.42
2023-04-19T12:56:17.778Z,75.31
2023-04-19T12:58:45.511Z,75.15
2023-04-19T13:01:13.188Z,75.65
2023-04-19T13:03:41.114Z,75.48
2023-04-19T13:06:09.091Z,75.98
2023-04-19T13:08:44.786Z,76.27
2023-04-19T13:11:15.445Z,76.89
2023-04-19T13:13:43.220Z,77.10
2023-04-19T13:16:11.158Z,77.12
2023-04-19T13:18:39.030Z,77.18
2023-04-19T13:21:08.298Z,77.41
2023-04-19T13:23:36.612Z,77.77
2023-04-19T13:26:04.343Z,77.82
2023-04-19T13:28:32.101Z,77.79
2023-04-19T13:30:59.719Z,78.17
2023-04-19T13:33:27.417Z,78.33
2023-04-19T13:35:55.120Z,78.47
2023-04-19T13:38:23.127Z,78.63
2023-04-19T13:40:51.367Z,78.44
2023-04-19T13:43:19.037Z,78.59
2023-04-19T13:45:46.756Z,78.80
2023-04-19T13:48:20.130Z,78.80
2023-04-19T13:50:49.172Z,79.09
2023-04-19T13:53:18.896Z,79.32
2023-04-19T13:55:46.580Z,79.15
2023-04-19T13:58:14.401Z,79.46
2023-04-19T14:00:42.127Z,79.28
2023-04-19T14:03:09.963Z,79.77
2023-04-19T14:05:37.731Z,79.84
2023-04-19T14:08:05.650Z,79.69
2023-04-19T14:10:34.375Z,79.70
2023-04-19T14:13:02.291Z,79.70
2023-04-19T14:15:29.971Z,79.62
2023-04-19T14:17:57.685Z,79.79
2023-04-19T14:20:25.431Z,79.95
2023-04-19T14:22:55.269Z,79.75
2023-04-19T14:25:23.117Z,79.80
2023-04-19T14:27:50.774Z,79.67
2023-04-19T14:30:18.543Z,79.77
2023-04-19T14:32:46.335Z,79.57
2023-04-19T14:35:14.294Z,79.68
2023-04-19T14:37:42.028Z,79.60
2023-04-19T14:40:11.118Z,79.51
2023-04-19T14:42:38.947Z,79.58
2023-04-19T14:45:07.525Z,79.71
2023-04-19T14:47:35.200Z,79.84
2023-04-19T14:50:02.986Z,80.02
2023-04-19T14:52:30.842Z,80.14
2023-04-19T14:54:59.770Z,79.81
2023-04-19T14:57:27.798Z,79.73
2023-04-19T14:59:59.034Z,79.73
2023-04-19T15:02:27.386Z,79.69
2023-04-19T15:04:55.412Z,79.65
2023-04-19T15:07:23.159Z,79.66
2023-04-19T15:09:50.858Z,79.85
2023-04-19T15:12:18.507Z,79.69
2023-04-19T15:14:46.154Z,79.83
2023-04-19T15:17:13.774Z,79.90
2023-04-19T15:19:41.495Z,80.00
2023-04-19T15:22:09.115Z,80.10
2023-04-19T15:24:36.799Z,79.89
2023-04-19T15:27:04.425Z,79.97
2023-04-19T15:29:32.163Z,79.92
2023-04-19T15:31:59.934Z,79.96
2023-04-19T15:34:27.689Z,80.08
2023-04-19T15:36:55.354Z,79.91
2023-04-19T15:39:23.019Z,80.04
2023-04-19T15:41:51.291Z,80.23
2023-04-19T15:44:18.990Z,80.13
2023-04-19T15:46:46.691Z,80.10
2023-04-19T15:49:14.574Z,80.21
2023-04-19T15:51:42.597Z,80.26
2023-04-19T15:54:11.218Z,80.16
2023-04-19T15:56:38.875Z,80.32
2023-04-19T15:59:06.466Z,80.47
2023-04-19T16:01:34.131Z,80.29
2023-04-19T16:04:03.732Z,80.33
2023-04-19T16:06:32.003Z,80.33
2023-04-19T16:08:59.600Z,80.33
2023-04-19T16:11:27.242Z,80.48
2023-04-19T16:13:54.898Z,80.50
2023-04-19T16:16:22.534Z,80.70
2023-04-19T16:18:50.387Z,80.61
2023-04-19T16:21:18.055Z,80.38
2023-04-19T16:23:45.821Z,80.46
2023-04-19T16:26:13.404Z,80.39
2023-04-19T16:28:41.054Z,80.34
2023-04-19T16:31:08.801Z,80.31
2023-04-19T16:33:36.401Z,80.22
2023-04-19T16:36:04.572Z,80.12
2023-04-19T16:38:32.210Z,80.17
2023-04-19T16:41:02.063Z,80.11
2023-04-19T16:43:29.725Z,79.94
2023-04-19T16:45:57.366Z,79.87
2023-04-19T16:48:25.028Z,79.87
2023-04-19T16:50:52.654Z,79.95
2023-04-19T16:53:20.616Z,79.96
2023-04-19T16:55:48.296Z,80.01
2023-04-19T16:58:16.107Z,79.95
2023-04-19T17:00:43.714Z,79.92
2023-04-19T17:03:11.972Z,79.97
2023-04-19T17:05:40.474Z,79.96
2023-04-19T17:08:08.281Z,80.18
2023-04-19T17:10:36.010Z,80.41
2023-04-19T17:13:03.779Z,80.50
2023-04-19T17:15:31.620Z,80.33
2023-04-19T17:17:59.418Z,80.34
2023-04-19T17:20:27.070Z,80.52
2023-04-19T17:22:54.840Z,80.58
2023-04-19T17:25:23.638Z,80.79
2023-04-19T17:27:51.604Z,80.60
2023-04-19T17:30:19.288Z,80.54
2023-04-19T17:32:47.079Z,80.53
2023-04-19T17:35:15.156Z,80.57
2023-04-19T17:37:43.703Z,80.50
2023-04-19T17:40:11.815Z,80.52
2023-04-19T17:42:39.440Z,80.55
2023-04-19T17:45:11.087Z,80.62
2023-04-19T17:47:39.586Z,80.39
2023-04-19T17:50:09.090Z,80.38
2023-04-19T17:52:36.793Z,80.33
2023-04-19T17:55:04.851Z,80.30
2023-04-19T17:57:34.070Z,80.35
2023-04-19T18:00:05.543Z,80.35
2023-04-19T18:02:34.162Z,80.47
2023-04-19T18:05:02.592Z,80.44
2023-04-19T18:07:30.429Z,80.49
2023-04-19T18:09:58.016Z,80.32
2023-04-19T18:12:26.001Z,80.21
2023-04-19T18:14:53.655Z,80.29
2023-04-19T18:17:21.846Z,80.24
2023-04-19T18:19:49.807Z,80.14
2023-04-19T18:22:17.421Z,80.31
2023-04-19T18:24:47.011Z,80.21
2023-04-19T18:27:14.665Z,80.38
2023-04-19T18:29:42.260Z,80.26
2023-04-19T18:32:09.948Z,80.14
2023-04-19T18:34:37.689Z,80.17
2023-04-19T18:37:16.276Z,80.21
2023-04-19T18:39:44.022Z,80.25
2023-04-19T18:42:11.694Z,80.36
2023-04-19T18:44:52.103Z,80.47
2023-04-19T18:47:22.115Z,80.46
2023-04-19T18:50:03.443Z,80.37
2023-04-19T18:52:37.511Z,80.30
2023-04-19T18:55:06.250Z,80.39
2023-04-19T18:57:35.465Z,80.37
2023-04-19T19:00:06.035Z,80.44
2023-04-19T19:02:36.427Z,80.75
2023-04-19T19:05:07.526Z,80.78
2023-04-19T19:07:37.472Z,80.74
2023-04-19T19:10:16.789Z,80.75
2023-04-19T19:12:46.544Z,80.78
2023-04-19T19:15:14.306Z,80.93
2023-04-19T19:17:43.193Z,81.08
2023-04-19T19:20:11.404Z,81.16
2023-04-19T19:22:39.201Z,81.05
2023-04-19T19:25:08.056Z,81.03
2023-04-19T19:27:35.879Z,80.83
2023-04-19T19:30:04.894Z,81.02
2023-04-19T19:32:32.608Z,81.02
2023-04-19T19:35:04.794Z,81.01
2023-04-19T19:37:37.767Z,81.08
2023-04-19T19:40:06.769Z,81.13
2023-04-19T19:42:35.067Z,81.00
2023-04-19T19:45:03.209Z,80.84
2023-04-19T19:47:34.990Z,80.91
2023-04-19T19:52:34.642Z,80.80
2023-04-19T19:55:02.273Z,80.99
2023-04-19T19:58:20.649Z,81.03
2023-04-19T20:00:39.988Z,80.80
2023-04-19T20:03:07.124Z,80.73
2023-04-19T20:05:35.187Z,80.71
2023-04-19T20:08:14.366Z,80.80
2023-04-19T20:10:42.266Z,80.57
2023-04-19T20:13:11.914Z,80.79
2023-04-19T20:15:39.901Z,80.88
2023-04-19T20:18:08.290Z,80.84
2023-04-19T20:20:36.382Z,80.75
2023-04-19T20:23:04.116Z,80.76
2023-04-19T20:25:32.779Z,80.72
2023-04-19T20:28:01.272Z,80.81
2023-04-19T20:30:28.878Z,80.72
2023-04-19T20:32:56.731Z,80.98
2023-04-19T20:35:24.671Z,80.87
2023-04-19T20:37:52.279Z,80.80
2023-04-19T20:40:20.001Z,80.76
2023-04-19T20:42:47.645Z,80.73
2023-04-19T20:45:15.412Z,80.53
2023-04-19T20:47:43.232Z,80.56
2023-04-19T20:50:11.279Z,80.46
2023-04-19T20:52:39.045Z,80.53
2023-04-19T20:55:07.882Z,80.68
2023-04-19T20:57:35.489Z,80.57
2023-04-19T21:00:04.715Z,80.59
2023-04-19T21:02:32.604Z,80.58
2023-04-19T21:05:00.680Z,80.40
2023-04-19T21:07:28.303Z,80.57
2023-04-19T21:09:55.902Z,80.57
2023-04-19T21:12:23.576Z,80.52
2023-04-19T21:14:52.910Z,80.64
2023-04-19T21:17:20.955Z,80.45
2023-04-19T21:19:48.590Z,80.31
2023-04-19T21:22:16.230Z,80.17
2023-04-19T21:24:43.920Z,79.96
2023-04-19T21:27:11.543Z,80.17
2023-04-19T21:29:39.123Z,80.34
2023-04-19T21:32:06.707Z,80.38
2023-04-19T21:34:34.293Z,80.43
2023-04-19T21:37:01.959Z,80.31
2023-04-19T21:39:29.541Z,80.32
2023-04-19T21:41:57.587Z,80.38
2023-04-19T21:44:25.232Z,80.43
2023-04-19T21:46:52.943Z,80.44
2023-04-19T21:49:20.844Z,80.61
2023-04-19T21:51:48.745Z,80.56
2023-04-19T21:54:26.520Z,80.48
2023-04-19T21:57:01.612Z,80.54
2023-04-19T21:59:30.653Z,80.64
2023-04-19T22:01:58.868Z,80.62
2023-04-19T22:04:30.605Z,80.72
2023-04-19T22:07:02.445Z,80.64
2023-04-19T22:09:30.754Z,80.83
2023-04-19T22:11:58.448Z,80.61
2023-04-19T22:14:26.157Z,80.62
2023-04-19T22:16:54.273Z,80.54
2023-04-19T22:19:24.708Z,80.44
2023-04-19T22:21:53.533Z,80.58
2023-04-19T22:24:22.314Z,80.61
2023-04-19T22:26:50.984Z,80.53
2023-04-19T22:29:19.529Z,80.58
2023-04-19T22:31:47.465Z,80.65
2023-04-19T22:34:15.279Z,80.65
2023-04-19T22:36:42.849Z,80.61
2023-04-19T22:39:11.085Z,80.66
2023-04-19T22:41:38.700Z,80.70
2023-04-19T22:44:06.306Z,80.65
2023-04-19T22:46:33.977Z,80.57
2023-04-19T22:49:02.087Z,80.82
2023-04-19T22:51:32.686Z,80.78
2023-04-19T22:54:00.610Z,80.59
2023-04-19T22:56:28.470Z,80.59
2023-04-19T22:58:57.377Z,80.72
2023-04-19T23:01:24.990Z,80.74
2023-04-19T23:03:52.616Z,80.94
2023-04-19T23:06:20.202Z,80.87
2023-04-19T23:08:47.819Z,80.75
2023-04-19T23:11:15.474Z,80.42
2023-04-19T23:13:43.965Z,80.50
2023-04-19T23:16:11.918Z,80.48
2023-04-19T23:18:40.318Z,80.48
2023-04-19T23:21:08.700Z,80.68
2023-04-19T23:23:36.313Z,80.89
2023-04-19T23:26:03.992Z,80.88
2023-04-19T23:28:31.793Z,80.97
2023-04-19T23:30:59.467Z,80.99
2023-04-19T23:33:27.188Z,80.83
2023-04-19T23:35:54.797Z,80.97
2023-04-19T23:38:22.414Z,81.22
2023-04-19T23:40:50.018Z,81.32
2023-04-19T23:43:17.620Z,81.28
2023-04-19T23:45:45.310Z,81.20
2023-04-19T23:48:12.929Z,81.26
2023-04-19T23:50:40.603Z,81.27
2023-04-19T23:53:08.199Z,81.30
2023-04-19T23:55:36.730Z,81.34
2023-04-19T23:58:04.581Z,81.38
